Time;durP1;ratioP1;P1;durP2;ratioP2;P2;SDS_P1;SDS_P2;PMS_P1;PMS_P2;Temp;Humidity;BMP_temperature;BMP_pressure;BME280_temperature;BME280_humidity;BME280_pressure;Samples;Min_cycle;Max_cycle;Signal;HPM_P1;HPM_P2
2024/04/02 00:01:38;;;;;;;16.95;6.15;;;;;;;15.71;100.00;98313.75;4901541;29;20060;-79
2024/04/02 00:04:13;;;;;;;18.50;5.18;;;;;;;15.65;100.00;98308.47;4902373;29;20040;-80
2024/04/02 00:06:43;;;;;;;21.55;5.40;;;;;;;15.47;100.00;98306.56;4883578;29;20132;-80
2024/04/02 00:09:10;;;;;;;15.88;4.97;;;;;;;15.48;100.00;98310.06;4856803;29;20151;-81
2024/04/02 00:11:39;;;;;;;12.60;4.60;;;;;;;15.47;100.00;98303.91;4850494;29;20104;-80
2024/04/02 00:14:12;;;;;;;10.82;4.72;;;;;;;15.47;100.00;98306.56;4848935;29;20357;-80
2024/04/02 00:16:40;;;;;;;15.27;5.15;;;;;;;15.46;100.00;98304.94;4869472;29;20434;-80
2024/04/02 00:19:09;;;;;;;18.17;5.55;;;;;;;15.39;100.00;98306.06;4899812;29;20050;-80
2024/04/02 00:21:38;;;;;;;14.57;5.03;;;;;;;15.46;100.00;98315.66;4908556;29;20058;-80
2024/04/02 00:24:05;;;;;;;20.20;5.60;;;;;;;15.36;100.00;98314.50;4923658;29;20054;-81
2024/04/02 00:26:40;;;;;;;16.35;4.68;;;;;;;15.35;100.00;98305.63;4940764;29;20051;-80
2024/04/02 00:29:08;;;;;;;12.50;5.00;;;;;;;15.39;100.00;98309.53;4908169;29;20130;-79
2024/04/02 00:31:34;;;;;;;15.68;5.60;;;;;;;15.30;100.00;98308.16;4938486;29;20051;-79
2024/04/02 00:34:05;;;;;;;21.38;6.20;;;;;;;15.24;100.00;98299.16;4891306;29;20817;-78
2024/04/02 00:36:31;;;;;;;15.15;4.70;;;;;;;15.27;100.00;98299.75;4955876;28;20234;-79
2024/04/02 00:38:57;;;;;;;13.80;5.20;;;;;;;15.26;100.00;98298.94;4983144;28;20081;-78
2024/04/02 00:41:24;;;;;;;15.10;4.65;;;;;;;15.36;100.00;98293.88;4988635;28;20045;-79
2024/04/02 00:43:50;;;;;;;9.82;4.35;;;;;;;15.25;100.00;98292.75;5004551;28;20048;-79
2024/04/02 00:46:17;;;;;;;16.88;5.13;;;;;;;15.21;100.00;98294.25;4968603;28;20511;-79
2024/04/02 00:48:43;;;;;;;13.23;4.00;;;;;;;15.19;100.00;98295.50;4985283;28;20482;-78
2024/04/02 00:51:09;;;;;;;12.85;4.97;;;;;;;15.14;100.00;98298.03;4978150;28;20050;-78
2024/04/02 00:53:35;;;;;;;11.95;4.88;;;;;;;15.13;100.00;98294.53;4960856;28;20054;-79
2024/04/02 00:56:02;;;;;;;13.32;4.95;;;;;;;15.05;100.00;98302.81;4961105;28;20065;-79
2024/04/02 00:58:32;;;;;;;19.67;4.88;;;;;;;15.07;100.00;98305.25;4944996;28;20049;-79
2024/04/02 01:00:58;;;;;;;20.67;6.43;;;;;;;14.92;100.00;98294.91;4965236;28;20065;-78
2024/04/02 01:03:27;;;;;;;17.65;6.05;;;;;;;14.90;100.00;98286.28;4967001;28;20153;-80
2024/04/02 01:05:54;;;;;;;14.75;4.78;;;;;;;14.84;100.00;98294.34;4963114;28;20065;-78
2024/04/02 01:08:20;;;;;;;18.42;5.70;;;;;;;14.71;100.00;98294.47;4945314;29;20165;-79
2024/04/02 01:10:46;;;;;;;23.92;6.85;;;;;;;14.69;100.00;98289.34;4913766;29;20454;-79
2024/04/02 01:13:15;;;;;;;13.40;5.88;;;;;;;14.68;100.00;98292.22;4923424;28;20062;-80
2024/04/02 01:15:42;;;;;;;14.70;5.55;;;;;;;14.63;100.00;98286.69;4921758;29;20113;-83
2024/04/02 01:18:12;;;;;;;25.65;6.10;;;;;;;14.66;100.00;98289.78;4907404;29;20063;-81
2024/04/02 01:20:41;;;;;;;19.63;7.00;;;;;;;14.64;100.00;98291.81;4924382;29;20541;-80
2024/04/02 01:23:16;;;;;;;16.40;7.20;;;;;;;14.66;100.00;98283.59;4975093;28;20524;-79
2024/04/02 01:25:46;;;;;;;16.30;7.22;;;;;;;14.59;100.00;98280.16;4960829;28;20062;-81
2024/04/02 01:28:13;;;;;;;14.35;6.97;;;;;;;14.48;100.00;98295.03;4943228;28;20064;-79
2024/04/02 01:30:39;;;;;;;22.58;7.28;;;;;;;14.39;100.00;98290.94;4942128;28;20062;-80
2024/04/02 01:33:08;;;;;;;19.20;6.28;;;;;;;14.46;100.00;98282.91;4923166;29;20054;-80
2024/04/02 01:35:34;;;;;;;21.08;7.38;;;;;;;14.31;100.00;98296.56;4926129;29;20078;-80
2024/04/02 01:38:09;;;;;;;17.83;6.68;;;;;;;14.46;100.00;98294.41;4977928;28;20054;-78
2024/04/02 01:40:35;;;;;;;13.70;6.00;;;;;;;14.31;100.00;98280.56;4999594;28;20057;-78
2024/04/02 01:43:02;;;;;;;13.70;5.53;;;;;;;14.33;100.00;98280.34;5003865;28;20049;-78
2024/04/02 01:45:28;;;;;;;21.63;8.18;;;;;;;14.27;100.00;98281.19;4988825;28;20045;-77
2024/04/02 01:47:54;;;;;;;20.60;6.00;;;;;;;14.28;100.00;98285.50;4966018;28;20065;-79
2024/04/02 01:50:26;;;;;;;17.95;6.07;;;;;;;14.22;100.00;98286.31;4950068;28;20485;-78
2024/04/02 01:53:05;;;;;;;14.20;5.22;;;;;;;14.25;100.00;98288.59;4984348;28;20050;-77
2024/04/02 01:55:31;;;;;;;19.70;7.20;;;;;;;14.13;100.00;98290.28;4968845;28;20587;-78
2024/04/02 01:57:57;;;;;;;17.48;5.95;;;;;;;14.11;100.00;98292.31;4962748;28;20057;-78
2024/04/02 02:00:26;;;;;;;13.75;5.63;;;;;;;14.06;100.00;98284.13;4944630;28;20046;-78
2024/04/02 02:02:55;;;;;;;13.88;5.80;;;;;;;14.04;100.00;98289.69;4976625;28;20058;-79
2024/04/02 02:05:21;;;;;;;17.77;5.65;;;;;;;14.01;100.00;98298.13;4979011;28;20042;-78
2024/04/02 02:07:47;;;;;;;15.65;6.13;;;;;;;14.03;100.00;98298.72;4991373;28;20069;-79
2024/04/02 02:10:16;;;;;;;10.18;4.68;;;;;;;14.07;100.00;98285.78;4978507;28;20055;-80
2024/04/02 02:12:49;;;;;;;17.15;5.78;;;;;;;13.99;100.00;98294.03;4956177;28;20055;-79
2024/04/02 02:15:14;;;;;;;17.02;5.47;;;;;;;13.98;100.00;98301.22;4955824;28;20109;-78
2024/04/02 02:17:42;;;;;;;19.83;5.90;;;;;;;13.98;100.00;98311.06;4940123;28;20046;-77
2024/04/02 02:20:14;;;;;;;17.45;5.43;;;;;;;14.06;100.00;98313.50;4938994;28;20086;-78
2024/04/02 02:22:41;;;;;;;13.68;5.53;;;;;;;13.89;100.00;98307.81;4956389;28;20066;-79
2024/04/02 02:25:33;;;;;;;16.40;5.00;;;;;;;13.92;100.00;98295.88;4978190;28;20145;-79
2024/04/02 02:27:59;;;;;;;13.27;5.88;;;;;;;13.84;100.00;98301.50;4960592;28;20046;-78
2024/04/02 02:30:27;;;;;;;11.65;5.75;;;;;;;13.83;100.00;98302.50;4965252;28;20054;-79
2024/04/02 02:32:56;;;;;;;19.90;5.80;;;;;;;13.78;100.00;98318.34;4943524;28;20062;-80
2024/04/02 02:35:22;;;;;;;22.00;5.82;;;;;;;13.73;100.00;98302.13;4921092;29;20532;-81
2024/04/02 02:37:50;;;;;;;13.70;5.78;;;;;;;13.67;100.00;98298.44;4902910;29;20063;-79
2024/04/02 02:40:19;;;;;;;21.85;6.93;;;;;;;13.60;100.00;98286.97;4915746;29;20086;-79
2024/04/02 02:42:46;;;;;;;18.67;6.13;;;;;;;13.60;100.00;98297.66;4921898;28;20039;-79
2024/04/02 02:45:14;;;;;;;21.38;6.30;;;;;;;13.60;100.00;98305.66;4924052;28;20066;-79
2024/04/02 02:47:44;;;;;;;16.58;6.05;;;;;;;13.61;100.00;98298.47;4955647;28;20480;-78
2024/04/02 02:50:10;;;;;;;20.00;7.22;;;;;;;13.64;100.00;98306.88;4917289;29;20074;-80
2024/04/02 02:52:37;;;;;;;20.35;6.25;;;;;;;13.58;100.00;98297.88;4886248;29;20060;-79
2024/04/02 02:55:11;;;;;;;17.27;6.45;;;;;;;13.74;100.00;98304.59;4898311;29;20063;-79
2024/04/02 02:57:38;;;;;;;18.27;6.40;;;;;;;13.62;100.00;98311.63;4883924;29;20071;-78
2024/04/02 03:00:08;;;;;;;15.55;6.32;;;;;;;13.71;100.00;98310.34;4882900;29;20087;-77
2024/04/02 03:02:35;;;;;;;;;;;;;;;13.84;100.00;98310.28;4883725;29;20052;-79
2024/04/02 03:05:03;;;;;;;16.98;6.38;;;;;;;13.68;100.00;98312.59;4911120;29;19962;-71
2024/04/02 03:07:31;;;;;;;20.90;5.90;;;;;;;13.63;100.00;98312.41;4972806;28;20069;-73
2024/04/02 03:09:58;;;;;;;22.92;6.32;;;;;;;13.64;100.00;98301.53;4942260;28;20050;-73
2024/04/02 03:12:24;;;;;;;27.30;6.55;;;;;;;13.57;100.00;98301.56;4941690;28;20065;-73
2024/04/02 03:14:52;;;;;;;21.67;6.45;;;;;;;13.69;100.00;98301.72;4941854;28;20050;-73
2024/04/02 03:17:18;;;;;;;21.50;6.70;;;;;;;13.58;100.00;98305.03;4941950;28;20532;-73
2024/04/02 03:19:44;;;;;;;16.40;6.45;;;;;;;13.52;100.00;98301.38;4958815;28;20229;-73
2024/04/02 03:22:10;;;;;;;16.73;6.30;;;;;;;13.57;100.00;98292.75;5013639;28;20060;-70
2024/04/02 03:24:38;;;;;;;15.77;5.38;;;;;;;13.61;100.00;98298.47;5016967;28;20045;-71
2024/04/02 03:27:09;;;;;;;18.35;6.50;;;;;;;13.76;100.00;98301.72;5017209;28;20057;-70
2024/04/02 03:29:35;;;;;;;13.13;6.05;;;;;;;13.65;100.00;98297.03;5034191;28;20251;-74
2024/04/02 03:32:04;;;;;;;16.13;5.88;;;;;;;13.69;100.00;98306.22;5038388;28;20071;-78
2024/04/02 03:34:30;;;;;;;17.60;7.13;;;;;;;13.61;100.00;98301.16;5022095;28;20040;-76
2024/04/02 03:36:57;;;;;;;22.10;7.20;;;;;;;13.67;100.00;98309.13;5021904;28;20047;-77
2024/04/02 03:39:23;;;;;;;20.98;6.80;;;;;;;13.59;100.00;98301.34;5054557;28;20063;-77
2024/04/02 03:41:48;;;;;;;15.85;6.60;;;;;;;13.61;100.00;98299.28;5021674;28;20467;-76
2024/04/02 03:44:15;;;;;;;11.68;5.85;;;;;;;13.66;100.00;98299.47;5055073;28;20047;-76
2024/04/02 03:46:41;;;;;;;18.15;7.03;;;;;;;13.60;100.00;98305.66;5038722;28;20036;-76
2024/04/02 03:49:07;;;;;;;16.63;7.00;;;;;;;13.62;100.00;98306.28;5054920;28;20045;-78
2024/04/02 03:51:36;;;;;;;20.05;6.95;;;;;;;13.65;100.00;98310.38;5016628;28;20143;-79
2024/04/02 03:54:02;;;;;;;13.88;7.18;;;;;;;13.63;100.00;98313.25;4977722;28;20601;-77
2024/04/02 03:56:28;;;;;;;16.85;6.80;;;;;;;13.65;100.00;98315.69;4961444;28;20141;-76
2024/04/02 03:58:55;;;;;;;15.85;6.90;;;;;;;13.63;100.00;98309.75;4945113;28;20065;-77
2024/04/02 04:01:22;;;;;;;13.20;6.10;;;;;;;13.64;100.00;98309.53;4970886;28;20465;-77
2024/04/02 04:03:49;;;;;;;24.88;7.30;;;;;;;13.63;100.00;98321.25;4944832;28;20555;-76
2024/04/02 04:06:15;;;;;;;19.30;7.00;;;;;;;13.66;100.00;98307.47;4945237;28;20063;-77
2024/04/02 04:08:41;;;;;;;22.02;7.20;;;;;;;13.65;100.00;98313.84;4977957;28;20477;-74
2024/04/02 04:11:07;;;;;;;20.75;6.78;;;;;;;13.67;100.00;98317.13;4992991;28;20058;-74
2024/04/02 04:13:33;;;;;;;18.48;6.70;;;;;;;13.70;100.00;98313.22;4953408;28;20384;-73
2024/04/02 04:16:00;;;;;;;12.75;6.03;;;;;;;13.78;100.00;98305.00;5002829;28;20042;-75
2024/04/02 04:18:27;;;;;;;22.65;7.47;;;;;;;13.76;100.00;98299.03;4977448;28;20112;-74
2024/04/02 04:20:54;;;;;;;16.40;6.50;;;;;;;13.79;100.00;98301.28;4935798;28;20077;-73
2024/04/02 04:23:21;;;;;;;21.15;6.80;;;;;;;13.85;100.00;98303.13;4974703;28;20049;-73
2024/04/02 04:25:54;;;;;;;17.80;7.40;;;;;;;13.87;100.00;98309.88;5005161;28;20056;-71
2024/04/02 04:28:20;;;;;;;20.83;7.72;;;;;;;13.86;100.00;98292.22;5043440;28;20507;-73
2024/04/02 04:30:57;;;;;;;17.92;7.60;;;;;;;13.97;100.00;98302.25;4999858;28;20095;-74
2024/04/02 04:33:24;;;;;;;14.00;6.45;;;;;;;13.95;100.00;98303.47;5018394;28;20057;-76
2024/04/02 04:38:40;;;;;;;18.25;6.70;;;;;;;13.92;100.00;98306.56;5023917;28;20132;-75
2024/04/02 04:41:08;;;;;;;16.02;6.95;;;;;;;13.94;100.00;98309.84;4989449;28;20140;-75
2024/04/02 04:43:38;;;;;;;19.85;6.93;;;;;;;13.97;100.00;98310.25;4978662;28;20084;-76
2024/04/02 04:46:07;;;;;;;11.73;5.45;;;;;;;14.03;100.00;98316.59;4995363;28;20041;-76
2024/04/02 04:48:34;;;;;;;13.40;5.95;;;;;;;14.02;100.00;98321.13;4979068;28;20053;-74
2024/04/02 04:51:04;;;;;;;14.65;5.88;;;;;;;14.15;100.00;98318.38;4996077;28;20548;-74
2024/04/02 04:53:31;;;;;;;15.35;6.93;;;;;;;14.11;100.00;98313.69;4987941;28;20051;-73
2024/04/02 04:56:05;;;;;;;13.82;5.53;;;;;;;14.24;100.00;98308.28;4986815;28;20058;-76
2024/04/02 04:58:33;;;;;;;25.63;6.55;;;;;;;14.22;100.00;98313.03;4957307;28;20449;-73
2024/04/02 05:01:01;;;;;;;16.05;6.47;;;;;;;14.22;100.00;98303.13;4936236;29;20055;-75
2024/04/02 05:03:27;;;;;;;16.58;6.50;;;;;;;14.32;100.00;98313.41;4898326;29;20056;-74
2024/04/02 05:06:06;;;;;;;13.82;6.05;;;;;;;14.55;100.00;98305.66;4929745;29;20138;-74
2024/04/02 05:08:37;;;;;;;13.65;6.32;;;;;;;14.50;100.00;98322.34;4899535;29;20063;-74
2024/04/02 05:11:07;;;;;;;20.92;7.38;;;;;;;14.54;100.00;98310.19;4871328;29;20048;-76
2024/04/02 05:13:36;;;;;;;;;;;;;;;14.75;100.00;98309.00;4953881;28;20047;-74
2024/04/02 05:16:04;;;;;;;14.00;6.45;;;;;;;14.68;100.00;98310.94;4953357;28;20369;-74
2024/04/02 05:18:34;;;;;;;20.57;6.77;;;;;;;14.86;100.00;98324.34;4937738;28;20086;-75
2024/04/02 05:21:00;;;;;;;19.90;6.60;;;;;;;14.80;100.00;98322.56;4937431;29;20059;-76
2024/04/02 05:23:26;;;;;;;18.40;7.07;;;;;;;14.89;100.00;98318.56;4937348;29;20170;-73
2024/04/02 05:25:59;;;;;;;15.80;6.68;;;;;;;15.09;100.00;98316.56;4937356;29;20094;-75
2024/04/02 05:28:24;;;;;;;14.48;6.10;;;;;;;14.96;100.00;98327.38;4953401;28;20407;-74
2024/04/02 05:30:53;;;;;;;18.80;7.22;;;;;;;14.95;100.00;98310.50;4907346;28;20054;-73
2024/04/02 05:33:20;;;;;;;18.13;6.32;;;;;;;15.02;100.00;98307.78;4943974;28;20038;-74
2024/04/02 05:35:45;;;;;;;20.20;6.50;;;;;;;15.11;100.00;98301.94;4970101;28;20056;-75
2024/04/02 05:38:12;;;;;;;15.27;6.40;;;;;;;15.22;100.00;98303.91;4999472;28;20446;-74
2024/04/02 05:40:41;;;;;;;17.98;5.90;;;;;;;15.36;100.00;98314.50;5015331;28;20041;-76
2024/04/02 05:43:07;;;;;;;23.30;7.50;;;;;;;15.37;100.00;98306.25;5031843;28;20098;-79
2024/04/02 05:45:34;;;;;;;18.00;6.50;;;;;;;15.43;100.00;98301.88;4979319;28;20062;-80
2024/04/02 05:48:02;;;;;;;14.75;6.25;;;;;;;15.50;100.00;98300.78;4964307;28;20062;-82
2024/04/02 05:50:28;;;;;;;18.52;6.10;;;;;;;15.64;100.00;98293.41;4978811;28;20497;-79
2024/04/02 05:52:55;;;;;;;14.27;5.78;;;;;;;15.81;100.00;98297.97;4962362;28;20037;-77
2024/04/02 05:55:21;;;;;;;16.10;6.50;;;;;;;15.96;100.00;98298.41;4962799;28;20046;-76
2024/04/02 05:57:47;;;;;;;17.23;6.47;;;;;;;16.15;100.00;98299.19;4978644;28;20507;-78
2024/04/02 06:00:13;;;;;;;20.60;6.28;;;;;;;16.26;100.00;98299.28;4962429;28;20369;-81
2024/04/02 06:02:42;;;;;;;14.38;6.03;;;;;;;16.38;100.00;98301.97;4979821;28;20038;-81
2024/04/02 06:05:08;;;;;;;12.45;6.35;;;;;;;16.52;100.00;98303.47;4996668;28;20065;-76
2024/04/02 06:07:35;;;;;;;22.15;8.05;;;;;;;16.68;100.00;98302.84;4996579;28;20365;-79
2024/04/02 06:10:02;;;;;;;17.55;5.95;;;;;;;16.72;100.00;98298.63;4963031;28;20138;-80
2024/04/02 06:12:29;;;;;;;12.27;6.45;;;;;;;16.88;100.00;98298.78;4963798;28;20050;-78
2024/04/02 06:14:56;;;;;;;18.55;7.03;;;;;;;17.05;100.00;98304.31;4962883;28;20544;-79
2024/04/02 06:17:25;;;;;;;26.92;7.10;;;;;;;17.36;100.00;98301.28;4979065;28;20567;-78
2024/04/02 06:19:52;;;;;;;20.00;6.80;;;;;;;17.51;100.00;98292.81;4964011;28;20477;-78
2024/04/02 06:22:23;;;;;;;18.85;7.03;;;;;;;17.88;100.00;98300.31;4965090;28;20046;-79
2024/04/02 06:24:53;;;;;;;27.92;6.93;;;;;;;18.12;100.00;98296.53;4981057;28;20061;-79
2024/04/02 06:27:19;;;;;;;19.10;6.60;;;;;;;18.27;100.00;98301.38;4980042;28;20069;-74
2024/04/02 06:29:46;;;;;;;18.70;5.97;;;;;;;18.37;100.00;98296.22;4972110;28;20116;-77
2024/04/02 06:32:12;;;;;;;16.45;7.40;;;;;;;18.33;100.00;98287.00;4956012;28;20078;-76
2024/04/02 06:34:38;;;;;;;12.55;5.30;;;;;;;18.33;100.00;98287.81;4940966;28;20132;-75
2024/04/02 06:37:04;;;;;;;17.13;6.10;;;;;;;18.27;100.00;98285.25;4971961;28;20404;-76
2024/04/02 06:39:29;;;;;;;18.42;5.40;;;;;;;18.38;100.00;98287.13;4955511;28;20453;-76
2024/04/02 06:41:56;;;;;;;15.15;5.80;;;;;;;18.47;100.00;98295.63;4940121;28;20493;-75
2024/04/02 06:44:23;;;;;;;15.73;5.82;;;;;;;18.56;100.00;98278.06;4972453;28;20051;-76
2024/04/02 06:46:50;;;;;;;15.40;5.80;;;;;;;18.87;100.00;98289.09;4972336;28;20038;-76
2024/04/02 06:49:19;;;;;;;13.85;5.10;;;;;;;19.15;100.00;98278.25;4957084;28;20115;-76
2024/04/02 06:51:50;;;;;;;28.63;6.75;;;;;;;19.30;100.00;98273.13;4953928;28;20168;-79
2024/04/02 06:54:16;;;;;;;12.30;5.75;;;;;;;19.48;100.00;98270.16;4922065;28;20134;-75
2024/04/02 06:56:42;;;;;;;17.20;6.32;;;;;;;19.66;100.00;98261.81;4924272;28;20070;-77
2024/04/02 06:59:10;;;;;;;20.17;6.38;;;;;;;19.87;100.00;98262.88;4969504;28;20059;-78
2024/04/02 07:01:36;;;;;;;12.07;5.13;;;;;;;20.15;100.00;98256.50;4969491;28;20125;-78
2024/04/02 07:04:08;;;;;;;14.63;4.97;;;;;;;20.73;100.00;98257.38;4953707;28;20078;-78
2024/04/02 07:06:35;;;;;;;16.05;6.20;;;;;;;20.91;100.00;98267.00;4977022;28;20047;-77
2024/04/02 07:09:08;;;;;;;15.48;5.68;;;;;;;20.90;100.00;98260.78;4944612;28;20073;-76
2024/04/02 07:11:35;;;;;;;15.13;5.40;;;;;;;20.93;100.00;98254.03;4993597;28;20078;-77
2024/04/02 07:14:03;;;;;;;13.00;5.30;;;;;;;21.06;100.00;98249.06;4964138;28;20066;-77
2024/04/02 07:16:29;;;;;;;17.25;5.95;;;;;;;21.37;100.00;98245.47;4985612;28;20054;-76
2024/04/02 07:18:57;;;;;;;20.17;6.32;;;;;;;21.67;100.00;98244.84;4976756;28;20042;-73
2024/04/02 07:21:25;;;;;;;23.33;6.68;;;;;;;21.80;100.00;98260.63;4953777;28;20066;-80
2024/04/02 07:23:51;;;;;;;15.70;5.35;;;;;;;21.87;100.00;98244.97;4921821;29;20107;-80
2024/04/02 07:26:17;;;;;;;14.98;5.13;;;;;;;22.21;100.00;98246.19;4904826;28;20071;-78
2024/04/02 07:28:43;;;;;;;15.15;6.30;;;;;;;22.70;100.00;98250.13;4941234;28;20055;-78
2024/04/02 07:31:09;;;;;;;16.00;5.72;;;;;;;22.77;100.00;98245.25;4940933;28;20050;-77
2024/04/02 07:33:36;;;;;;;19.10;7.55;;;;;;;23.20;100.00;98235.78;4925112;28;20117;-78
2024/04/02 07:36:06;;;;;;;20.02;6.60;;;;;;;24.38;100.00;98240.31;4940360;28;20146;-80
2024/04/02 07:38:33;;;;;;;27.02;7.15;;;;;;;26.09;83.09;98236.06;4972958;28;20053;-79
2024/04/02 07:41:00;;;;;;;14.55;5.90;;;;;;;27.83;70.26;98228.88;4941405;28;20059;-81
2024/04/02 07:43:28;;;;;;;16.45;4.93;;;;;;;30.10;57.17;98222.28;4957003;28;20082;-82
2024/04/02 07:45:54;;;;;;;15.40;5.22;;;;;;;31.61;46.33;98231.97;4940248;28;20397;-78
2024/04/02 07:48:23;;;;;;;19.17;5.97;;;;;;;32.85;40.20;98235.81;4955963;28;20507;-83
2024/04/02 07:50:49;;;;;;;11.07;5.10;;;;;;;33.04;37.50;98235.34;4923898;28;20097;-81
2024/04/02 07:53:22;;;;;;;16.33;6.05;;;;;;;33.17;36.14;98235.06;4974527;28;20058;-82
2024/04/02 07:55:48;;;;;;;17.27;6.07;;;;;;;33.08;35.74;98233.53;4978275;28;20086;-78
2024/04/02 07:58:14;;;;;;;22.25;6.03;;;;;;;33.23;34.45;98232.91;4983691;28;20085;-82
2024/04/02 08:00:43;;;;;;;16.92;5.13;;;;;;;33.58;34.58;98226.69;5016713;28;20041;-81
2024/04/02 08:03:10;;;;;;;17.15;5.47;;;;;;;34.30;32.39;98225.97;4971581;28;20041;-79
2024/04/02 08:05:36;;;;;;;16.70;5.20;;;;;;;34.94;31.43;98232.28;5005742;28;20045;-80
2024/04/02 08:08:03;;;;;;;12.10;4.60;;;;;;;35.41;30.28;98227.72;4990215;28;20041;-79
2024/04/02 08:10:30;;;;;;;17.55;5.53;;;;;;;35.96;28.42;98220.47;5003017;28;20105;-75
2024/04/02 08:12:56;;;;;;;12.57;5.13;;;;;;;36.38;27.34;98222.28;4989709;28;20119;-82
2024/04/02 08:15:22;;;;;;;15.63;4.88;;;;;;;36.59;27.07;98225.56;5003841;28;20045;-75
2024/04/02 08:17:48;;;;;;;11.50;4.70;;;;;;;36.85;26.28;98214.69;5024917;28;20037;-83
2024/04/02 08:20:14;;;;;;;13.23;5.07;;;;;;;36.64;26.21;98205.09;5016851;28;20071;-79
2024/04/02 08:22:41;;;;;;;11.82;4.38;;;;;;;37.22;26.00;98209.50;5002967;28;20092;-82
2024/04/02 08:25:10;;;;;;;14.07;5.35;;;;;;;37.93;24.77;98201.31;4998738;28;20050;-81
2024/04/02 08:27:39;;;;;;;15.10;5.28;;;;;;;38.50;24.01;98198.22;5014948;28;20053;-81
2024/04/02 08:30:08;;;;;;;25.35;5.70;;;;;;;37.94;22.83;98197.34;4997640;28;20057;-79
2024/04/02 08:32:35;;;;;;;13.45;5.03;;;;;;;37.79;23.34;98195.53;4999221;28;20069;-78
2024/04/02 08:35:01;;;;;;;17.75;5.57;;;;;;;37.41;24.09;98198.41;4998275;28;20041;-75
2024/04/02 08:37:28;;;;;;;17.88;5.70;;;;;;;36.80;24.73;98192.00;5015267;28;20037;-83
2024/04/02 08:39:55;;;;;;;12.05;5.00;;;;;;;36.22;25.09;98187.53;4998515;28;20041;-82
2024/04/02 08:42:25;;;;;;;22.95;5.47;;;;;;;36.04;25.38;98176.06;5001246;28;20099;-84
2024/04/02 08:44:52;;;;;;;15.60;4.78;;;;;;;36.72;24.80;98179.97;4984764;28;20808;-80
2024/04/02 08:47:19;;;;;;;20.27;6.18;;;;;;;38.03;23.32;98186.81;4963609;28;20050;-80
2024/04/02 08:49:46;;;;;;;16.25;5.43;;;;;;;38.24;22.67;98178.81;4963397;28;20428;-83
2024/04/02 08:52:13;;;;;;;18.98;5.72;;;;;;;38.05;22.50;98172.56;4963514;28;20053;-82
2024/04/02 08:54:39;;;;;;;10.00;4.47;;;;;;;38.48;22.39;98163.69;4973039;28;20062;-81
2024/04/02 08:57:07;;;;;;;19.83;5.43;;;;;;;39.56;21.47;98166.19;4938699;28;20047;-83
2024/04/02 08:59:37;;;;;;;10.45;4.63;;;;;;;40.64;20.67;98163.41;4938847;28;20054;-81
2024/04/02 09:02:08;;;;;;;19.17;5.35;;;;;;;41.52;19.22;98164.53;4922463;29;20438;-81
2024/04/02 09:04:40;;;;;;;21.20;6.05;;;;;;;41.81;18.66;98162.56;4921704;29;20406;-79
2024/04/02 09:07:07;;;;;;;15.65;5.10;;;;;;;41.57;18.83;98155.78;4938049;28;20059;-80
2024/04/02 09:09:36;;;;;;;10.43;4.37;;;;;;;42.04;18.21;98151.81;4954664;28;20067;-82
2024/04/02 09:12:04;;;;;;;13.00;4.97;;;;;;;42.97;17.68;98143.53;4923957;29;20055;-84
2024/04/02 09:14:34;;;;;;;12.63;4.25;;;;;;;44.39;16.44;98146.84;4955671;28;20118;-83
2024/04/02 09:17:07;;;;;;;13.43;4.78;;;;;;;44.15;16.10;98136.69;4927847;29;20051;-79
2024/04/02 09:19:33;;;;;;;8.15;3.97;;;;;;;44.70;15.60;98143.69;4906871;29;20553;-77
2024/04/02 09:22:01;;;;;;;20.10;5.00;;;;;;;43.89;15.74;98134.53;4920591;29;20055;-84
2024/04/02 09:24:27;;;;;;;14.50;4.97;;;;;;;43.62;16.26;98133.56;4927932;28;20051;-83
2024/04/02 09:26:56;;;;;;;16.35;5.22;;;;;;;42.59;16.64;98122.16;4932177;28;20055;-83
2024/04/02 09:29:23;;;;;;;21.85;5.68;;;;;;;42.30;17.09;98133.78;4934507;29;20062;-84
2024/04/02 09:31:55;;;;;;;12.18;4.80;;;;;;;41.90;17.36;98121.09;4932660;28;20117;-84
2024/04/02 09:34:33;;;;;;;14.02;5.15;;;;;;;41.89;17.35;98118.72;4919283;29;20146;-80
2024/04/02 09:37:18;;;;;;;16.23;4.97;;;;;;;41.88;17.36;98101.16;4937036;29;20070;-81
2024/04/02 09:39:51;;;;;;;15.32;4.50;;;;;;;41.91;17.19;98119.13;4965342;28;20598;-82
2024/04/02 09:42:18;;;;;;;13.93;5.13;;;;;;;41.72;17.41;98100.78;4947203;28;20069;-85
2024/04/02 09:44:46;;;;;;;15.70;4.15;;;;;;;42.43;16.91;98102.28;4928181;28;20066;-80
2024/04/02 09:47:18;;;;;;;14.55;5.00;;;;;;;43.42;15.89;98099.75;4940749;28;20141;-79
2024/04/02 09:49:58;;;;;;;13.07;4.43;;;;;;;42.76;16.07;98095.38;4904087;29;20059;-81
2024/04/02 09:52:25;;;;;;;20.45;5.13;;;;;;;41.61;16.84;98108.38;4880023;29;20969;-85
2024/04/02 09:54:51;;;;;;;23.90;5.75;;;;;;;40.33;18.03;98108.41;4870427;29;20060;-84
2024/04/02 09:57:22;;;;;;;25.98;6.32;;;;;;;39.47;18.68;98112.91;4909535;29;20063;-84
2024/04/02 09:59:53;;;;;;;28.40;6.32;;;;;;;38.10;19.72;98087.09;4889363;29;20052;-85
2024/04/02 10:02:28;;;;;;;;;;;;;;;38.28;20.11;98079.03;4896403;29;20052;-84
2024/04/02 10:04:59;;;;;;;24.30;5.63;;;;;;;38.58;19.84;98086.16;4895916;29;20052;-84
2024/04/02 10:07:29;;;;;;;;;;;;;;;39.72;19.12;98084.13;4897175;29;20057;-84
2024/04/02 10:10:31;;;;;;;12.38;5.20;;;;;;;39.59;18.90;98088.41;4901141;29;20361;-84
2024/04/02 10:13:25;;;;;;;15.07;4.93;;;;;;;38.00;20.01;98075.84;4916370;29;20600;-84
2024/04/02 10:15:54;;;;;;;17.20;5.43;;;;;;;37.08;21.18;98073.53;4933139;29;20290;-85
2024/04/02 10:18:22;;;;;;;18.85;4.63;;;;;;;36.03;22.18;98061.13;4921250;29;20055;-82
2024/04/02 10:20:56;;;;;;;11.97;4.43;;;;;;;35.85;22.92;98065.47;4917196;28;20061;-84
2024/04/02 10:23:24;;;;;;;18.58;5.90;;;;;;;36.36;22.55;98064.25;4977929;28;20095;-85
2024/04/02 10:25:53;;;;;;;;;;;;;;;37.12;21.82;98061.34;4967035;28;20057;-84
2024/04/02 10:28:31;;;;;;;16.83;4.75;;;;;;;36.15;22.45;98057.44;5005455;28;19921;-80
2024/04/02 10:31:00;;;;;;;17.67;5.57;;;;;;;35.93;22.78;98050.66;5031617;28;20505;-83
2024/04/02 10:33:31;;;;;;;21.60;5.43;;;;;;;35.43;23.03;98047.88;5017852;28;20148;-84
2024/04/02 10:36:01;;;;;;;20.23;5.75;;;;;;;34.28;24.07;98043.56;5002809;28;20587;-82
2024/04/02 10:38:49;;;;;;;23.25;5.82;;;;;;;33.55;25.80;98042.91;4996471;28;20120;-82
2024/04/02 10:41:21;;;;;;;18.25;5.78;;;;;;;33.47;25.86;98043.03;4960639;28;20046;-85
2024/04/02 10:43:56;;;;;;;23.65;5.93;;;;;;;33.37;25.66;98048.97;4943583;28;20519;-81
2024/04/02 10:46:27;;;;;;;23.42;5.65;;;;;;;32.56;26.85;98036.00;4958778;28;20154;-80
2024/04/02 10:49:04;;;;;;;21.73;5.82;;;;;;;32.22;27.68;98033.56;4952079;29;20055;-81
2024/04/02 10:51:42;;;;;;;23.88;6.07;;;;;;;32.11;27.79;98037.84;4900364;29;20060;-79
2024/04/02 10:54:09;;;;;;;24.38;6.75;;;;;;;32.84;26.79;98029.88;4879958;29;20060;-79
2024/04/02 10:56:40;;;;;;;28.35;6.88;;;;;;;32.81;26.67;98036.88;4849410;29;20416;-79
2024/04/02 10:59:11;;;;;;;20.98;5.70;;;;;;;33.18;26.54;98049.56;4880753;29;20155;-79
2024/04/02 11:01:39;;;;;;;25.52;7.05;;;;;;;32.75;26.14;98045.66;4863324;29;20059;-80
2024/04/02 11:04:06;;;;;;;18.88;5.80;;;;;;;32.69;26.59;98023.09;4869624;29;20056;-80
2024/04/02 11:06:33;;;;;;;35.42;7.00;;;;;;;32.85;26.17;98035.03;4895642;29;20055;-80
2024/04/02 11:09:00;;;;;;;27.83;7.28;;;;;;;32.75;26.32;98037.41;4892655;29;20095;-82
2024/04/02 11:11:39;;;;;;;21.85;6.47;;;;;;;32.70;26.88;98016.44;4915004;29;20087;-81
2024/04/02 11:14:20;;;;;;;25.55;6.32;;;;;;;33.12;26.63;98014.34;4898459;29;20087;-82
2024/04/02 11:16:50;;;;;;;19.75;6.25;;;;;;;33.79;25.89;98011.78;4898227;29;20056;-82
2024/04/02 11:19:25;;;;;;;30.33;6.85;;;;;;;34.75;24.51;98007.84;4845968;29;20539;-84
2024/04/02 11:24:58;;;;;;;26.00;5.87;;;;;;;34.88;23.94;98009.41;4860996;29;20140;-81
2024/04/02 11:28:04;;;;;;;25.63;5.88;;;;;;;34.38;24.41;98001.75;4842442;29;20437;-82
2024/04/02 11:31:08;;;;;;;28.40;6.00;;;;;;;34.54;24.68;97991.53;4859295;29;20175;-82
2024/04/02 11:33:56;;;;;;;23.27;4.93;;;;;;;34.58;24.65;97981.41;4843331;29;20455;-81
2024/04/02 11:36:48;;;;;;;23.25;5.32;;;;;;;34.76;23.81;97985.44;4917387;29;20146;-82